createdAt,value
2019-01-21T00:02:05.608Z,25.10
2019-01-21T00:07:12.738Z,25.53
2019-01-21T00:12:19.455Z,26.17
2019-01-21T00:17:24.938Z,25.87
2019-01-21T00:22:31.470Z,23.13
2019-01-21T00:27:36.830Z,24.57
2019-01-21T00:32:42.326Z,25.97
2019-01-21T00:37:48.027Z,24.77
2019-01-21T00:42:53.428Z,25.37
2019-01-21T00:47:58.804Z,26.03
2019-01-21T00:53:04.417Z,25.33
2019-01-21T00:58:10.039Z,24.23
2019-01-21T01:03:15.265Z,24.07
2019-01-21T01:08:21.138Z,24.43
2019-01-21T01:13:27.208Z,25.57
2019-01-21T01:18:32.920Z,25.63
2019-01-21T01:23:38.226Z,26.70
2019-01-21T01:28:43.815Z,28.87
2019-01-21T01:33:49.006Z,26.43
2019-01-21T01:38:54.713Z,25.83
2019-01-21T01:44:00.176Z,29.33
2019-01-21T01:49:06.382Z,26.93
2019-01-21T01:54:11.690Z,25.90
2019-01-21T01:59:16.875Z,26.27
2019-01-21T02:04:22.591Z,26.67
2019-01-21T02:09:27.780Z,25.47
2019-01-21T02:14:33.285Z,25.13
2019-01-21T02:19:39.809Z,25.43
2019-01-21T02:24:44.959Z,24.07
2019-01-21T02:30:15.943Z,24.90
2019-01-21T02:35:30.615Z,23.50
2019-01-21T02:41:35.003Z,23.90
2019-01-21T02:46:58.329Z,25.47
2019-01-21T02:52:38.582Z,24.80
2019-01-21T02:58:42.948Z,24.80
2019-01-21T03:04:35.211Z,23.67
2019-01-21T03:10:05.300Z,25.63
2019-01-21T03:15:57.961Z,25.87
2019-01-21T03:21:23.233Z,26.00
2019-01-21T03:27:05.774Z,26.03
2019-01-21T03:33:07.160Z,27.43
2019-01-21T03:38:52.179Z,27.73
2019-01-21T03:44:41.414Z,28.17
2019-01-21T03:50:23.647Z,30.27
2019-01-21T03:55:30.247Z,31.97
2019-01-21T04:00:54.544Z,28.87
2019-01-21T04:06:43.640Z,30.63
2019-01-21T04:12:05.139Z,31.20
2019-01-21T04:18:06.031Z,31.07
2019-01-21T04:23:49.054Z,31.03
2019-01-21T04:29:07.721Z,29.23
2019-01-21T04:34:53.325Z,30.33
2019-01-21T04:40:21.724Z,30.23
2019-01-21T04:46:00.047Z,27.70
2019-01-21T04:51:49.077Z,26.73
2019-01-21T04:57:17.830Z,26.40
2019-01-21T05:03:04.188Z,26.93
2019-01-21T05:09:02.106Z,25.93
2019-01-21T05:14:48.482Z,26.97
2019-01-21T05:20:24.556Z,24.93
2019-01-21T05:25:50.085Z,26.13
2019-01-21T05:31:36.326Z,24.83
2019-01-21T05:37:25.776Z,24.47
2019-01-21T05:43:16.685Z,26.23
2019-01-21T05:49:09.499Z,26.03
2019-01-21T05:54:51.897Z,26.47
2019-01-21T06:00:44.646Z,29.00
2019-01-21T06:06:09.403Z,30.67
2019-01-21T06:12:05.885Z,30.80
2019-01-21T06:17:23.232Z,30.20
2019-01-21T06:23:15.792Z,27.17
2019-01-21T06:28:55.217Z,26.87
2019-01-21T06:34:48.476Z,27.60
2019-01-21T06:40:37.780Z,27.97
2019-01-21T06:46:23.223Z,28.03
2019-01-21T06:51:42.940Z,28.70
2019-01-21T06:57:12.432Z,26.23
2019-01-21T07:02:32.010Z,26.97
2019-01-21T07:08:24.364Z,27.13
2019-01-21T07:14:10.460Z,25.87
2019-01-21T07:20:12.022Z,27.77
2019-01-21T07:25:57.827Z,24.87
2019-01-21T07:31:46.965Z,26.80
2019-01-21T07:37:36.198Z,27.23
2019-01-21T07:43:24.695Z,29.40
2019-01-21T07:49:06.499Z,28.50
2019-01-21T07:54:27.614Z,28.27
2019-01-21T08:00:12.303Z,30.40
2019-01-21T08:05:55.181Z,29.07
2019-01-21T08:11:26.286Z,27.77
2019-01-21T08:17:12.642Z,28.33
2019-01-21T08:22:59.791Z,26.83
2019-01-21T08:28:38.283Z,26.30
2019-01-21T08:34:00.357Z,29.13
2019-01-21T08:39:37.350Z,31.13
2019-01-21T08:45:19.610Z,31.90
2019-01-21T08:51:12.103Z,31.63
2019-01-21T08:57:28.706Z,32.23
2019-01-21T09:02:50.415Z,32.67
2019-01-21T09:08:37.577Z,33.13
2019-01-21T09:14:23.143Z,33.23
2019-01-21T09:20:11.290Z,32.37
2019-01-21T09:25:43.072Z,35.63
2019-01-21T09:31:20.492Z,36.30
2019-01-21T09:37:09.775Z,31.50
2019-01-21T09:42:46.178Z,36.93
2019-01-21T09:47:49.808Z,38.77
2019-01-21T09:52:56.080Z,37.37
2019-01-21T09:58:07.835Z,38.23
2019-01-21T10:03:13.886Z,35.27
2019-01-21T10:08:31.263Z,36.77
2019-01-21T10:14:03.445Z,34.87
2019-01-21T10:19:41.037Z,35.53
2019-01-21T10:25:23.414Z,36.00
2019-01-21T10:30:53.158Z,36.27
2019-01-21T10:36:40.801Z,32.97
2019-01-21T10:41:52.092Z,32.23
2019-01-21T10:47:08.425Z,33.50
2019-01-21T10:53:00.594Z,33.90
2019-01-21T10:58:30.527Z,33.17
2019-01-21T11:04:01.690Z,31.80
2019-01-21T11:09:43.744Z,32.10
2019-01-21T11:15:32.808Z,32.57
2019-01-21T11:21:02.471Z,33.00
2019-01-21T11:27:03.524Z,32.33
2019-01-21T11:32:42.182Z,33.97
2019-01-21T11:38:17.322Z,33.73
2019-01-21T11:43:37.886Z,30.20
2019-01-21T11:48:59.496Z,30.83
2019-01-21T11:54:19.707Z,32.60
2019-01-21T12:00:07.302Z,31.53
2019-01-21T12:05:31.210Z,30.17
2019-01-21T12:11:17.353Z,30.53
2019-01-21T12:17:17.943Z,26.10
2019-01-21T12:22:50.613Z,25.00
2019-01-21T12:28:15.706Z,24.13
2019-01-21T12:34:01.128Z,22.90
2019-01-21T12:39:55.648Z,23.83
2019-01-21T12:45:28.851Z,22.80
2019-01-21T12:51:21.073Z,21.20
2019-01-21T12:56:46.851Z,19.47
2019-01-21T13:02:30.744Z,18.80
2019-01-21T13:08:06.576Z,18.47
2019-01-21T13:13:48.392Z,18.57
2019-01-21T13:19:23.781Z,20.87
2019-01-21T13:24:56.240Z,16.53
2019-01-21T13:30:31.646Z,17.83
2019-01-21T13:36:35.534Z,17.10
2019-01-21T13:41:58.918Z,17.40
2019-01-21T13:47:50.007Z,18.63
2019-01-21T13:53:39.639Z,18.07
2019-01-21T13:59:22.795Z,17.43
2019-01-21T14:05:11.034Z,20.07
2019-01-21T14:10:53.357Z,21.47
2019-01-21T14:16:23.819Z,18.00
2019-01-21T14:21:57.622Z,18.93
2019-01-21T14:27:41.178Z,18.00
2019-01-21T14:33:12.388Z,20.13
2019-01-21T14:38:42.099Z,18.87
2019-01-21T14:44:15.414Z,18.63
2019-01-21T14:49:41.146Z,19.00
2019-01-21T14:55:11.400Z,15.93
2019-01-21T15:00:48.992Z,15.37
2019-01-21T15:06:32.365Z,15.30
2019-01-21T15:12:14.571Z,16.10
2019-01-21T15:17:47.753Z,16.83
2019-01-21T15:23:49.055Z,18.13
2019-01-21T15:29:16.123Z,18.03
2019-01-21T15:35:07.261Z,19.50
2019-01-21T15:40:42.339Z,22.23
2019-01-21T15:46:11.297Z,23.93
2019-01-21T15:52:02.562Z,24.27
2019-01-21T15:57:30.432Z,24.67
2019-01-21T16:03:19.521Z,25.80
2019-01-21T16:08:39.524Z,26.27
2019-01-21T16:14:01.512Z,28.10
2019-01-21T16:19:10.836Z,31.50
2019-01-21T16:24:48.718Z,31.43
2019-01-21T16:30:01.413Z,31.00
2019-01-21T16:35:45.105Z,30.77
2019-01-21T16:41:22.314Z,31.97
2019-01-21T16:46:27.881Z,32.03
2019-01-21T16:51:33.065Z,30.30
2019-01-21T16:56:38.282Z,30.60
2019-01-21T17:01:44.212Z,30.17
2019-01-21T17:06:51.299Z,29.73
2019-01-21T17:11:56.581Z,28.77
2019-01-21T17:17:01.783Z,28.20
2019-01-21T17:22:07.394Z,28.93
2019-01-21T17:27:12.892Z,29.53
2019-01-21T17:32:18.094Z,30.40
2019-01-21T17:37:23.941Z,29.73
2019-01-21T17:42:29.178Z,28.57
2019-01-21T17:47:34.365Z,29.50
2019-01-21T17:52:39.586Z,29.20
2019-01-21T17:57:46.188Z,27.83
2019-01-21T18:02:51.395Z,26.27
2019-01-21T18:07:56.802Z,26.00
2019-01-21T18:13:02.128Z,26.27
2019-01-21T18:18:07.712Z,26.83
2019-01-21T18:23:13.463Z,27.93
2019-01-21T18:28:18.688Z,26.83
2019-01-21T18:33:23.853Z,25.23
2019-01-21T18:38:30.339Z,28.40
2019-01-21T18:43:38.835Z,22.90
2019-01-21T18:48:44.358Z,23.17
2019-01-21T18:53:51.112Z,22.17
2019-01-21T18:58:57.297Z,21.90
2019-01-21T19:04:02.623Z,21.37
2019-01-21T19:09:09.388Z,21.87
2019-01-21T19:14:15.063Z,19.90
2019-01-21T19:19:20.636Z,20.30
2019-01-21T19:24:25.903Z,18.93
2019-01-21T19:29:32.163Z,18.63
2019-01-21T19:34:37.746Z,19.67
2019-01-21T19:39:43.054Z,22.63
2019-01-21T19:44:48.322Z,26.23
2019-01-21T19:49:53.936Z,21.97
2019-01-21T19:54:59.252Z,26.53
2019-01-21T20:00:05.537Z,23.83
2019-01-21T20:05:11.302Z,25.57
2019-01-21T20:10:19.082Z,24.67
2019-01-21T20:15:25.841Z,24.17
2019-01-21T20:20:33.531Z,24.57
2019-01-21T20:25:38.746Z,22.70
2019-01-21T20:30:43.944Z,22.90
2019-01-21T20:35:49.173Z,25.07
2019-01-21T20:40:55.131Z,24.47
2019-01-21T20:46:00.323Z,24.13
2019-01-21T20:51:05.543Z,26.20
2019-01-21T20:56:11.458Z,26.73
2019-01-21T21:01:19.272Z,28.17
2019-01-21T21:06:24.486Z,27.40
2019-01-21T21:11:30.210Z,24.57
2019-01-21T21:16:35.742Z,24.07
2019-01-21T21:21:41.815Z,21.00
2019-01-21T21:26:47.505Z,20.90
2019-01-21T21:31:52.756Z,19.23
2019-01-21T21:36:58.295Z,18.20
2019-01-21T21:42:03.514Z,19.23
2019-01-21T21:47:08.791Z,19.73
2019-01-21T21:52:14.780Z,19.43
2019-01-21T21:57:20.160Z,19.53
2019-01-21T22:02:25.466Z,19.53
2019-01-21T22:07:31.037Z,20.10
2019-01-21T22:12:36.669Z,19.23
2019-01-21T22:17:42.144Z,18.93
2019-01-21T22:22:47.336Z,19.60
2019-01-21T22:27:52.928Z,19.10
2019-01-21T22:32:58.632Z,18.23
2019-01-21T22:38:04.135Z,18.20
2019-01-21T22:43:09.348Z,17.80
2019-01-21T22:48:15.768Z,16.93
2019-01-21T22:53:21.296Z,17.33
2019-01-21T22:58:26.588Z,18.17
2019-01-21T23:03:32.353Z,18.13
2019-01-21T23:08:37.547Z,17.80
2019-01-21T23:13:42.825Z,17.23
2019-01-21T23:18:48.017Z,16.50
2019-01-21T23:23:53.580Z,16.50
2019-01-21T23:28:58.820Z,17.00
2019-01-21T23:34:04.624Z,16.20
2019-01-21T23:39:09.827Z,16.30
2019-01-21T23:44:15.349Z,17.47
2019-01-21T23:49:20.535Z,16.33
2019-01-21T23:54:26.042Z,16.83
2019-01-21T23:59:31.636Z,15.93
